Time;durP1;ratioP1;P1;durP2;ratioP2;P2;SDS_P1;SDS_P2;PMS_P1;PMS_P2;Temp;Humidity;BMP_temperature;BMP_pressure;BME280_temperature;BME280_humidity;BME280_pressure;Samples;Min_cycle;Max_cycle;Signal;HPM_P1;HPM_P2
2023/10/06 00:00:26;;;;;;;1.80;1.70;;;;;;;;;;5080456;28;20580;-64
2023/10/06 00:02:54;;;;;;;1.60;1.50;;;;;;;;;;5080728;28;20204;-64
2023/10/06 00:05:23;;;;;;;1.85;1.67;;;;;;;;;;5080610;28;20204;-64
2023/10/06 00:07:51;;;;;;;1.63;1.52;;;;;;;;;;5080679;28;20547;-64
2023/10/06 00:10:21;;;;;;;1.70;1.55;;;;;;;;;;5080245;28;20204;-64
2023/10/06 00:12:54;;;;;;;1.52;1.42;;;;;;;;;;5080276;28;20196;-64
2023/10/06 00:15:26;;;;;;;2.05;1.60;;;;;;;;;;5080213;28;20204;-64
2023/10/06 00:17:56;;;;;;;1.60;1.50;;;;;;;;;;5079629;28;20303;-64
2023/10/06 00:20:38;;;;;;;1.58;1.48;;;;;;;;;;5080147;28;20295;-64
2023/10/06 00:23:08;;;;;;;2.38;1.90;;;;;;;;;;5079940;28;20204;-64
2023/10/06 00:25:37;;;;;;;2.00;1.50;;;;;;;;;;5079834;28;20626;-64
2023/10/06 00:28:14;;;;;;;2.15;1.70;;;;;;;;;;5080462;28;20281;-64
2023/10/06 00:30:42;;;;;;;1.60;1.50;;;;;;;;;;5080304;28;20230;-64
2023/10/06 00:33:10;;;;;;;1.65;1.55;;;;;;;;;;5079856;28;20209;-64
2023/10/06 00:35:38;;;;;;;2.42;1.70;;;;;;;;;;5079818;28;20200;-64
2023/10/06 00:38:12;;;;;;;1.67;1.50;;;;;;;;;;5079756;28;20239;-64
2023/10/06 00:40:42;;;;;;;1.75;1.55;;;;;;;;;;5079976;28;20286;-64
2023/10/06 00:43:16;;;;;;;1.70;1.52;;;;;;;;;;5079642;28;20238;-64
2023/10/06 00:45:44;;;;;;;2.00;1.42;;;;;;;;;;5079591;28;20204;-64
2023/10/06 00:48:14;;;;;;;1.60;1.50;;;;;;;;;;5079766;28;20212;-64
2023/10/06 00:50:43;;;;;;;1.80;1.58;;;;;;;;;;5079511;28;20246;-64
2023/10/06 00:53:13;;;;;;;1.98;1.65;;;;;;;;;;5079616;28;20579;-64
2023/10/06 00:55:41;;;;;;;1.67;1.58;;;;;;;;;;5078938;28;20587;-64
2023/10/06 00:58:11;;;;;;;2.08;1.60;;;;;;;;;;5079576;28;20212;-64
2023/10/06 01:00:43;;;;;;;1.80;1.60;;;;;;;;;;5079007;28;20269;-64
2023/10/06 01:03:14;;;;;;;2.08;1.90;;;;;;;;;;5079276;28;20224;-64
2023/10/06 01:05:46;;;;;;;2.17;1.75;;;;;;;;;;5079604;28;20205;-64
2023/10/06 01:08:15;;;;;;;1.98;1.80;;;;;;;;;;5079362;28;20204;-64
2023/10/06 01:10:43;;;;;;;2.00;1.60;;;;;;;;;;5078965;28;20258;-64
2023/10/06 01:13:14;;;;;;;1.70;1.52;;;;;;;;;;5079371;28;20208;-64
2023/10/06 01:15:49;;;;;;;2.65;1.70;;;;;;;;;;5079491;28;20235;-64
2023/10/06 01:18:23;;;;;;;1.45;1.35;;;;;;;;;;5079558;28;20211;-64
2023/10/06 01:20:50;;;;;;;1.63;1.40;;;;;;;;;;5079182;28;20569;-64
2023/10/06 01:23:21;;;;;;;1.77;1.67;;;;;;;;;;5078637;28;20196;-64
2023/10/06 01:25:55;;;;;;;1.80;1.50;;;;;;;;;;5079059;28;20232;-64
2023/10/06 01:28:24;;;;;;;2.22;1.95;;;;;;;;;;5079318;28;20456;-64
2023/10/06 01:30:52;;;;;;;1.65;1.55;;;;;;;;;;5078916;28;20278;-64
2023/10/06 01:33:19;;;;;;;1.75;1.48;;;;;;;;;;5078873;28;20212;-64
2023/10/06 01:35:47;;;;;;;2.00;1.77;;;;;;;;;;5078894;28;20228;-64
2023/10/06 01:38:22;;;;;;;1.80;1.58;;;;;;;;;;5078649;28;20211;-64
2023/10/06 01:40:52;;;;;;;2.22;1.80;;;;;;;;;;5078935;28;20204;-64
2023/10/06 01:43:24;;;;;;;2.03;1.83;;;;;;;;;;5078569;28;20243;-64
2023/10/06 01:45:52;;;;;;;1.95;1.65;;;;;;;;;;5078921;28;20208;-64
2023/10/06 01:48:29;;;;;;;2.10;1.90;;;;;;;;;;5078643;28;20204;-64
2023/10/06 01:50:57;;;;;;;2.25;1.70;;;;;;;;;;5077868;28;20243;-64
2023/10/06 01:53:32;;;;;;;1.73;1.55;;;;;;;;;;5078423;28;20211;-64
2023/10/06 01:56:06;;;;;;;1.83;1.65;;;;;;;;;;5078413;28;20311;-64
2023/10/06 01:58:34;;;;;;;2.38;1.77;;;;;;;;;;5078053;28;20567;-64
2023/10/06 02:01:01;;;;;;;1.90;1.60;;;;;;;;;;5078216;28;20270;-64
2023/10/06 02:03:37;;;;;;;1.60;1.48;;;;;;;;;;5078559;28;20204;-64
2023/10/06 02:06:12;;;;;;;2.08;1.52;;;;;;;;;;5078055;28;20204;-64
2023/10/06 02:08:40;;;;;;;1.60;1.50;;;;;;;;;;5078167;28;20215;-64
2023/10/06 02:11:12;;;;;;;2.00;1.58;;;;;;;;;;5078121;28;20252;-64
2023/10/06 02:13:40;;;;;;;1.88;1.70;;;;;;;;;;5078079;28;20216;-64
2023/10/06 02:16:08;;;;;;;1.67;1.52;;;;;;;;;;5077966;28;20271;-64
2023/10/06 02:18:40;;;;;;;1.67;1.50;;;;;;;;;;5077882;28;20476;-64
2023/10/06 02:21:14;;;;;;;2.28;1.77;;;;;;;;;;5078046;28;20296;-64
2023/10/06 02:23:43;;;;;;;1.75;1.63;;;;;;;;;;5077782;28;20200;-64
2023/10/06 02:26:13;;;;;;;1.67;1.58;;;;;;;;;;5077797;28;20204;-64
2023/10/06 02:31:41;;;;;;;2.20;1.52;;;;;;;;;;5918578;22;20287;-64
2023/10/06 02:34:12;;;;;;;1.98;1.60;;;;;;;;;;5057673;28;20212;-64
2023/10/06 02:36:41;;;;;;;1.60;1.40;;;;;;;;;;5057749;28;20205;-64
2023/10/06 02:39:10;;;;;;;1.75;1.50;;;;;;;;;;5057220;28;20510;-64
2023/10/06 02:41:39;;;;;;;1.70;1.50;;;;;;;;;;5057624;28;20200;-64
2023/10/06 02:44:14;;;;;;;1.98;1.65;;;;;;;;;;5057606;28;20231;-64
2023/10/06 02:46:44;;;;;;;1.80;1.60;;;;;;;;;;5057101;28;20204;-64
2023/10/06 02:49:11;;;;;;;2.22;1.75;;;;;;;;;;5057085;28;20287;-64
2023/10/06 02:51:47;;;;;;;2.08;1.60;;;;;;;;;;5057296;28;20320;-64
2023/10/06 02:54:27;;;;;;;1.90;1.70;;;;;;;;;;5057613;28;20204;-64
2023/10/06 02:56:56;;;;;;;2.08;1.90;;;;;;;;;;5057464;28;20215;-64
2023/10/06 02:59:25;;;;;;;1.80;1.60;;;;;;;;;;5057582;28;20205;-64
2023/10/06 03:01:52;;;;;;;2.40;1.65;;;;;;;;;;5057317;28;20262;-64
2023/10/06 03:04:21;;;;;;;2.35;1.70;;;;;;;;;;5057335;28;20236;-64
2023/10/06 03:06:53;;;;;;;1.70;1.60;;;;;;;;;;5057256;28;20204;-64
2023/10/06 03:09:27;;;;;;;1.77;1.50;;;;;;;;;;5057410;28;20211;-64
2023/10/06 03:11:58;;;;;;;1.83;1.60;;;;;;;;;;5059134;28;20236;-64
2023/10/06 03:14:37;;;;;;;1.50;1.40;;;;;;;;;;5061369;28;20299;-64
2023/10/06 03:17:06;;;;;;;1.90;1.70;;;;;;;;;;5061020;28;20262;-64
2023/10/06 03:19:34;;;;;;;1.75;1.60;;;;;;;;;;5061495;28;20533;-64
2023/10/06 03:22:04;;;;;;;1.48;1.38;;;;;;;;;;5060751;28;20223;-64
2023/10/06 03:24:33;;;;;;;1.77;1.58;;;;;;;;;;5060720;28;20291;-64
2023/10/06 03:27:12;;;;;;;2.00;1.70;;;;;;;;;;5060465;28;20266;-64
2023/10/06 03:29:50;;;;;;;1.70;1.60;;;;;;;;;;5060640;28;20267;-64
2023/10/06 03:32:27;;;;;;;1.98;1.70;;;;;;;;;;5070349;28;20627;-64
2023/10/06 03:34:57;;;;;;;1.60;1.48;;;;;;;;;;5080898;28;20215;-64
2023/10/06 03:37:38;;;;;;;1.80;1.70;;;;;;;;;;5080687;28;20576;-64
2023/10/06 03:40:21;;;;;;;1.92;1.67;;;;;;;;;;5080862;28;20204;-64
2023/10/06 03:42:50;;;;;;;1.55;1.40;;;;;;;;;;5080428;28;20584;-64
2023/10/06 03:45:26;;;;;;;1.40;1.30;;;;;;;;;;5080827;28;20208;-64
2023/10/06 03:48:08;;;;;;;1.92;1.70;;;;;;;;;;5080465;28;20266;-64
2023/10/06 03:50:37;;;;;;;2.25;1.73;;;;;;;;;;5080232;28;20269;-64
2023/10/06 03:53:07;;;;;;;1.90;1.70;;;;;;;;;;5079968;28;20227;-64
2023/10/06 03:55:39;;;;;;;1.92;1.67;;;;;;;;;;5080191;28;20212;-64
2023/10/06 03:58:08;;;;;;;1.80;1.55;;;;;;;;;;5080107;28;20211;-64
2023/10/06 04:00:38;;;;;;;1.52;1.40;;;;;;;;;;5080197;28;20265;-64
2023/10/06 04:03:09;;;;;;;2.33;1.80;;;;;;;;;;5080028;28;20291;-64
2023/10/06 04:05:37;;;;;;;1.70;1.60;;;;;;;;;;5080642;28;20587;-64
2023/10/06 04:08:08;;;;;;;2.00;1.80;;;;;;;;;;5080082;28;20238;-64
2023/10/06 04:10:36;;;;;;;1.90;1.70;;;;;;;;;;5079541;28;20208;-64
2023/10/06 04:13:05;;;;;;;1.75;1.50;;;;;;;;;;5079921;28;20228;-64
2023/10/06 04:15:38;;;;;;;2.20;2.00;;;;;;;;;;5079213;28;20303;-64
2023/10/06 04:18:09;;;;;;;1.90;1.70;;;;;;;;;;5079102;28;20208;-64
2023/10/06 04:20:37;;;;;;;1.65;1.55;;;;;;;;;;5079556;28;20211;-64
2023/10/06 04:23:05;;;;;;;1.98;1.77;;;;;;;;;;5079545;28;20472;-64
2023/10/06 04:25:37;;;;;;;1.67;1.58;;;;;;;;;;5079992;28;20526;-64
2023/10/06 04:28:05;;;;;;;2.13;1.90;;;;;;;;;;5079202;28;20261;-64
2023/10/06 04:30:34;;;;;;;2.08;1.70;;;;;;;;;;5079258;28;20212;-64
2023/10/06 04:33:03;;;;;;;1.90;1.67;;;;;;;;;;5078995;28;20231;-64
2023/10/06 04:35:32;;;;;;;2.25;2.05;;;;;;;;;;5079135;28;20204;-64
2023/10/06 04:38:00;;;;;;;1.88;1.77;;;;;;;;;;5078920;28;20205;-64
2023/10/06 04:40:27;;;;;;;1.98;1.83;;;;;;;;;;5079190;28;20282;-64
2023/10/06 04:42:56;;;;;;;1.95;1.77;;;;;;;;;;5079118;28;20208;-64
2023/10/06 04:45:24;;;;;;;1.70;1.60;;;;;;;;;;5079303;28;20544;-64
2023/10/06 04:47:55;;;;;;;2.17;1.98;;;;;;;;;;5079128;28;20204;-64
2023/10/06 04:50:24;;;;;;;2.05;1.85;;;;;;;;;;5079141;28;20211;-64
2023/10/06 04:52:54;;;;;;;2.53;1.75;;;;;;;;;;5079046;28;20228;-64
2023/10/06 04:55:21;;;;;;;1.95;1.80;;;;;;;;;;5078271;28;20208;-64
2023/10/06 04:57:49;;;;;;;1.75;1.65;;;;;;;;;;5078565;28;20472;-64
2023/10/06 05:00:19;;;;;;;2.00;1.80;;;;;;;;;;5078986;28;20444;-64
2023/10/06 05:02:47;;;;;;;1.75;1.63;;;;;;;;;;5077992;28;20200;-64
2023/10/06 05:05:19;;;;;;;2.25;2.00;;;;;;;;;;5078938;28;20295;-64
2023/10/06 05:07:48;;;;;;;1.90;1.67;;;;;;;;;;5078232;28;20669;-64
2023/10/06 05:10:18;;;;;;;1.80;1.70;;;;;;;;;;5077998;28;20490;-64
2023/10/06 05:12:46;;;;;;;2.13;1.92;;;;;;;;;;5077782;28;20281;-64
2023/10/06 05:15:23;;;;;;;2.47;1.70;;;;;;;;;;5078530;28;20231;-64
2023/10/06 05:17:55;;;;;;;1.80;1.70;;;;;;;;;;5077763;28;20226;-64
2023/10/06 05:20:23;;;;;;;2.00;1.80;;;;;;;;;;5077720;28;20205;-64
2023/10/06 05:22:52;;;;;;;1.80;1.70;;;;;;;;;;5077745;28;20201;-64
2023/10/06 05:25:20;;;;;;;1.60;1.50;;;;;;;;;;5077204;28;20204;-64
2023/10/06 05:27:50;;;;;;;2.00;1.80;;;;;;;;;;5077744;28;20289;-64
2023/10/06 05:30:17;;;;;;;1.90;1.80;;;;;;;;;;5077594;28;20566;-64
2023/10/06 05:32:45;;;;;;;1.90;1.80;;;;;;;;;;5077287;28;20244;-64
2023/10/06 05:35:13;;;;;;;1.60;1.42;;;;;;;;;;5076617;28;20209;-64
2023/10/06 05:37:43;;;;;;;1.92;1.80;;;;;;;;;;5077193;28;20208;-64
2023/10/06 05:40:16;;;;;;;1.77;1.63;;;;;;;;;;5077791;28;20200;-64
2023/10/06 05:42:43;;;;;;;1.75;1.63;;;;;;;;;;5078431;28;20200;-64
2023/10/06 05:45:15;;;;;;;1.70;1.60;;;;;;;;;;5077275;28;20696;-64
2023/10/06 05:47:46;;;;;;;1.80;1.50;;;;;;;;;;5077179;28;20215;-64
2023/10/06 05:50:18;;;;;;;1.92;1.75;;;;;;;;;;5077234;28;20204;-64
2023/10/06 05:52:51;;;;;;;2.20;1.80;;;;;;;;;;5077004;28;20232;-64
2023/10/06 05:55:22;;;;;;;1.55;1.45;;;;;;;;;;5077094;28;20205;-64
2023/10/06 05:57:52;;;;;;;1.67;1.58;;;;;;;;;;5076132;28;20200;-64
2023/10/06 06:00:24;;;;;;;2.97;1.50;;;;;;;;;;5077122;28;20212;-64
2023/10/06 06:02:52;;;;;;;1.70;1.60;;;;;;;;;;5076097;28;20291;-64
2023/10/06 06:05:20;;;;;;;1.77;1.67;;;;;;;;;;5077103;28;20216;-64
2023/10/06 06:07:47;;;;;;;1.75;1.60;;;;;;;;;;5077246;28;20493;-64
2023/10/06 06:10:15;;;;;;;1.70;1.60;;;;;;;;;;5077269;28;20220;-64
2023/10/06 06:12:43;;;;;;;2.10;1.90;;;;;;;;;;5076672;28;20227;-64
2023/10/06 06:15:12;;;;;;;2.42;1.90;;;;;;;;;;5077127;28;20239;-64
2023/10/06 06:17:40;;;;;;;2.60;2.13;;;;;;;;;;5075905;28;20200;-64
2023/10/06 06:20:14;;;;;;;2.33;2.10;;;;;;;;;;5076752;28;20230;-64
2023/10/06 06:22:49;;;;;;;2.72;1.80;;;;;;;;;;5076606;28;20204;-64
2023/10/06 06:25:17;;;;;;;1.70;1.60;;;;;;;;;;5075937;28;20213;-64
2023/10/06 06:27:46;;;;;;;1.70;1.48;;;;;;;;;;5076333;28;20211;-64
2023/10/06 06:30:18;;;;;;;1.90;1.80;;;;;;;;;;5076281;28;20592;-64
2023/10/06 06:32:45;;;;;;;1.95;1.85;;;;;;;;;;5075608;28;20334;-64
2023/10/06 06:35:13;;;;;;;2.67;1.70;;;;;;;;;;5076004;28;20609;-64
2023/10/06 06:37:42;;;;;;;1.95;1.75;;;;;;;;;;5075953;28;20214;-64
2023/10/06 06:40:13;;;;;;;3.17;2.00;;;;;;;;;;5076220;28;20226;-64
2023/10/06 06:42:41;;;;;;;2.10;1.90;;;;;;;;;;5076479;28;20200;-64
2023/10/06 06:45:13;;;;;;;1.60;1.50;;;;;;;;;;5076118;28;20588;-64
2023/10/06 06:47:42;;;;;;;1.65;1.55;;;;;;;;;;5075178;28;20843;-64
2023/10/06 06:50:10;;;;;;;2.33;1.70;;;;;;;;;;5075198;28;20277;-64
2023/10/06 06:52:38;;;;;;;2.92;2.00;;;;;;;;;;5076308;28;20683;-64
2023/10/06 06:55:12;;;;;;;1.92;1.65;;;;;;;;;;5075762;28;20207;-64
2023/10/06 06:57:41;;;;;;;2.20;2.00;;;;;;;;;;5075128;28;20242;-64
2023/10/06 07:00:15;;;;;;;2.55;1.80;;;;;;;;;;5074686;28;20266;-64
2023/10/06 07:02:44;;;;;;;2.22;2.03;;;;;;;;;;5075025;28;20239;-64
2023/10/06 07:05:12;;;;;;;2.42;2.22;;;;;;;;;;5075049;28;20262;-64
2023/10/06 07:07:42;;;;;;;2.22;2.03;;;;;;;;;;5074735;28;20212;-64
2023/10/06 07:10:11;;;;;;;2.67;2.22;;;;;;;;;;5075452;28;20238;-64
2023/10/06 07:12:39;;;;;;;2.28;2.08;;;;;;;;;;5075407;28;20436;-64
2023/10/06 07:15:14;;;;;;;2.40;2.20;;;;;;;;;;5075319;28;20203;-64
2023/10/06 07:17:45;;;;;;;2.30;2.10;;;;;;;;;;5075078;28;20477;-64
2023/10/06 07:20:14;;;;;;;2.30;2.10;;;;;;;;;;5074817;28;20281;-65
2023/10/06 07:22:41;;;;;;;2.55;2.20;;;;;;;;;;5074860;28;20211;-65
2023/10/06 07:25:10;;;;;;;2.40;2.00;;;;;;;;;;5074832;28;20204;-65
2023/10/06 07:27:38;;;;;;;2.08;1.88;;;;;;;;;;5074201;28;20204;-65
2023/10/06 07:30:10;;;;;;;2.13;1.90;;;;;;;;;;5073979;28;20204;-65
2023/10/06 07:32:41;;;;;;;1.80;1.70;;;;;;;;;;5074642;28;20236;-65
2023/10/06 07:35:12;;;;;;;2.47;2.28;;;;;;;;;;5074672;28;20265;-65
2023/10/06 07:37:42;;;;;;;2.08;1.77;;;;;;;;;;5074353;28;20215;-65
2023/10/06 07:40:13;;;;;;;2.78;2.13;;;;;;;;;;5074803;28;20214;-64
2023/10/06 07:42:41;;;;;;;2.90;2.10;;;;;;;;;;5074645;28;20267;-64
2023/10/06 07:45:09;;;;;;;1.70;1.60;;;;;;;;;;5074640;28;20206;-64
2023/10/06 07:47:37;;;;;;;2.70;2.45;;;;;;;;;;5073347;28;20492;-64
2023/10/06 07:50:06;;;;;;;2.50;2.30;;;;;;;;;;5073760;28;20696;-64
2023/10/06 07:52:35;;;;;;;2.42;2.22;;;;;;;;;;5074513;28;20286;-64
2023/10/06 07:55:05;;;;;;;2.70;2.50;;;;;;;;;;5074702;28;20208;-64
2023/10/06 07:57:36;;;;;;;3.08;2.50;;;;;;;;;;5075867;28;20212;-64
2023/10/06 08:00:06;;;;;;;2.40;2.20;;;;;;;;;;5077977;28;20490;-64
2023/10/06 08:02:36;;;;;;;2.25;1.95;;;;;;;;;;5076794;28;20517;-64
2023/10/06 08:05:04;;;;;;;2.30;2.10;;;;;;;;;;5078064;28;20200;-64
2023/10/06 08:07:31;;;;;;;3.20;1.80;;;;;;;;;;5078780;28;20303;-64
2023/10/06 08:10:04;;;;;;;2.38;1.85;;;;;;;;;;5077839;28;20738;-64
2023/10/06 08:12:33;;;;;;;5.15;2.08;;;;;;;;;;5078162;28;20205;-64
2023/10/06 08:15:01;;;;;;;3.17;2.30;;;;;;;;;;5076900;28;20305;-64
2023/10/06 08:17:29;;;;;;;2.72;2.10;;;;;;;;;;5077682;28;20364;-64
2023/10/06 08:19:56;;;;;;;2.50;2.00;;;;;;;;;;5077327;28;20615;-64
2023/10/06 08:22:25;;;;;;;3.92;2.50;;;;;;;;;;5077585;28;20205;-64
2023/10/06 08:24:53;;;;;;;2.75;1.98;;;;;;;;;;5077715;28;20212;-64
2023/10/06 08:27:23;;;;;;;3.42;2.47;;;;;;;;;;5077500;28;20247;-64
2023/10/06 08:29:52;;;;;;;3.00;2.50;;;;;;;;;;5077353;28;20211;-64
2023/10/06 08:32:20;;;;;;;3.70;2.30;;;;;;;;;;5077346;28;20247;-64
2023/10/06 08:34:47;;;;;;;3.75;2.50;;;;;;;;;;5077355;28;20590;-64
2023/10/06 08:37:15;;;;;;;3.05;2.40;;;;;;;;;;5077405;28;20219;-64
2023/10/06 08:39:44;;;;;;;3.83;2.50;;;;;;;;;;5076480;28;20232;-64
2023/10/06 08:42:14;;;;;;;3.50;2.15;;;;;;;;;;5077199;28;20254;-64
2023/10/06 08:44:43;;;;;;;3.90;2.10;;;;;;;;;;5076351;28;20235;-64
2023/10/06 08:47:11;;;;;;;3.55;2.88;;;;;;;;;;5077865;28;20231;-64
2023/10/06 08:49:39;;;;;;;2.33;1.90;;;;;;;;;;5077013;28;20204;-64
2023/10/06 08:52:10;;;;;;;2.80;2.25;;;;;;;;;;5077080;28;20266;-64
2023/10/06 08:54:38;;;;;;;3.40;2.47;;;;;;;;;;5077279;28;20239;-64
2023/10/06 08:57:05;;;;;;;3.28;2.28;;;;;;;;;;5076985;28;20212;-64
2023/10/06 08:59:33;;;;;;;2.72;2.40;;;;;;;;;;5076491;28;20196;-64
2023/10/06 09:02:03;;;;;;;2.70;2.20;;;;;;;;;;5076563;28;20204;-64
2023/10/06 09:04:35;;;;;;;4.38;2.47;;;;;;;;;;5076721;28;20200;-64
2023/10/06 09:07:17;;;;;;;2.70;2.00;;;;;;;;;;5076774;28;20635;-64
2023/10/06 09:09:47;;;;;;;2.97;2.20;;;;;;;;;;5074957;28;20215;-64
2023/10/06 09:12:23;;;;;;;2.90;1.95;;;;;;;;;;5076365;28;20200;-64
2023/10/06 09:14:54;;;;;;;2.75;2.10;;;;;;;;;;5075942;28;20301;-64
2023/10/06 09:17:33;;;;;;;3.50;2.17;;;;;;;;;;5076139;28;20196;-64
2023/10/06 09:20:00;;;;;;;2.47;2.00;;;;;;;;;;5076862;28;20482;-64
2023/10/06 09:22:30;;;;;;;2.30;2.10;;;;;;;;;;5076780;28;20211;-64
2023/10/06 09:24:59;;;;;;;3.80;2.40;;;;;;;;;;5076221;28;20201;-64
2023/10/06 09:27:28;;;;;;;2.95;2.55;;;;;;;;;;5076205;28;20730;-64
2023/10/06 09:30:05;;;;;;;2.45;2.10;;;;;;;;;;5076488;28;20204;-64
2023/10/06 09:32:34;;;;;;;3.03;2.22;;;;;;;;;;5076256;28;20650;-64
2023/10/06 09:35:18;;;;;;;3.33;2.40;;;;;;;;;;5076419;28;20653;-64
2023/10/06 09:37:45;;;;;;;2.50;2.20;;;;;;;;;;5076233;28;20249;-64
2023/10/06 09:40:20;;;;;;;2.92;1.92;;;;;;;;;;5075647;28;20200;-64
2023/10/06 09:42:48;;;;;;;2.53;1.95;;;;;;;;;;5076202;28;20203;-64
2023/10/06 09:45:18;;;;;;;3.40;2.20;;;;;;;;;;5076412;28;20270;-64
2023/10/06 09:47:50;;;;;;;2.75;2.10;;;;;;;;;;5076541;28;20212;-64
2023/10/06 09:50:19;;;;;;;4.22;2.55;;;;;;;;;;5076203;28;20569;-64
2023/10/06 09:52:47;;;;;;;3.88;2.20;;;;;;;;;;5075569;28;20797;-64
2023/10/06 09:55:15;;;;;;;4.15;2.50;;;;;;;;;;5075451;28;20627;-64
2023/10/06 09:57:43;;;;;;;3.15;2.40;;;;;;;;;;5075572;28;20204;-64
2023/10/06 10:00:16;;;;;;;2.78;2.10;;;;;;;;;;5075154;28;20205;-64
2023/10/06 10:02:45;;;;;;;3.63;2.33;;;;;;;;;;5075614;28;20678;-64
2023/10/06 10:05:15;;;;;;;3.75;1.90;;;;;;;;;;5075386;28;20281;-65
2023/10/06 10:07:42;;;;;;;4.32;2.13;;;;;;;;;;5075622;28;20716;-64
2023/10/06 10:10:10;;;;;;;4.05;2.35;;;;;;;;;;5075284;28;20204;-64
2023/10/06 10:12:44;;;;;;;4.35;2.20;;;;;;;;;;5075246;28;20212;-65
2023/10/06 10:15:19;;;;;;;5.10;2.63;;;;;;;;;;5074767;28;20224;-65
2023/10/06 10:17:53;;;;;;;2.95;2.10;;;;;;;;;;5074582;28;20243;-65
2023/10/06 10:20:25;;;;;;;4.03;2.60;;;;;;;;;;5073780;28;20269;-65
2023/10/06 10:22:53;;;;;;;3.60;2.30;;;;;;;;;;5074633;28;20350;-64
2023/10/06 10:25:20;;;;;;;4.30;2.25;;;;;;;;;;5074408;28;20278;-64
2023/10/06 10:28:03;;;;;;;5.03;1.98;;;;;;;;;;5074347;28;20211;-64
2023/10/06 10:30:46;;;;;;;2.63;2.10;;;;;;;;;;5073419;28;20216;-64
2023/10/06 10:33:21;;;;;;;3.67;2.00;;;;;;;;;;5074427;28;20236;-64
2023/10/06 10:36:03;;;;;;;3.08;2.33;;;;;;;;;;5074803;28;20220;-64
2023/10/06 10:38:34;;;;;;;3.30;2.17;;;;;;;;;;5074381;28;20493;-64
2023/10/06 10:41:02;;;;;;;3.97;2.20;;;;;;;;;;5075011;28;20208;-64
2023/10/06 10:43:29;;;;;;;3.38;2.05;;;;;;;;;;5074224;28;20204;-64
2023/10/06 10:45:57;;;;;;;4.68;2.30;;;;;;;;;;5075068;28;20523;-64
2023/10/06 10:48:33;;;;;;;3.00;2.08;;;;;;;;;;5074873;28;20204;-64
2023/10/06 10:51:01;;;;;;;4.18;2.17;;;;;;;;;;5073943;28;20200;-64
2023/10/06 10:53:30;;;;;;;3.42;2.10;;;;;;;;;;5074713;28;20200;-64
2023/10/06 10:56:01;;;;;;;3.22;2.00;;;;;;;;;;5074534;28;20197;-64
2023/10/06 10:58:48;;;;;;;3.65;2.15;;;;;;;;;;5074411;28;20204;-64
2023/10/06 11:01:26;;;;;;;3.05;1.77;;;;;;;;;;5074034;28;20204;-64
2023/10/06 11:04:12;;;;;;;3.58;2.20;;;;;;;;;;5074449;28;20215;-64
2023/10/06 11:06:40;;;;;;;3.20;2.20;;;;;;;;;;5075037;28;20232;-64
2023/10/06 11:09:25;;;;;;;3.22;1.95;;;;;;;;;;5074514;28;20474;-64
2023/10/06 11:11:55;;;;;;;3.20;2.08;;;;;;;;;;5073792;28;20200;-64
2023/10/06 11:14:23;;;;;;;2.53;1.88;;;;;;;;;;5073996;28;20778;-64
2023/10/06 11:16:52;;;;;;;2.85;1.90;;;;;;;;;;5073905;28;20505;-64
2023/10/06 11:19:20;;;;;;;2.63;1.92;;;;;;;;;;5074331;28;20215;-64
2023/10/06 11:21:48;;;;;;;2.97;1.73;;;;;;;;;;5073481;28;20200;-65
2023/10/06 11:24:30;;;;;;;2.35;1.70;;;;;;;;;;5073825;28;20626;-65
2023/10/06 11:27:11;;;;;;;2.53;1.83;;;;;;;;;;5074706;28;20232;-65
2023/10/06 11:29:38;;;;;;;2.55;1.90;;;;;;;;;;5074800;28;20659;-65
2023/10/06 11:32:06;;;;;;;2.55;1.92;;;;;;;;;;5074630;28;20243;-65
2023/10/06 11:34:34;;;;;;;2.78;1.80;;;;;;;;;;5077348;28;20747;-65
2023/10/06 11:37:02;;;;;;;2.45;1.88;;;;;;;;;;5078084;28;20204;-64
2023/10/06 11:39:29;;;;;;;2.25;1.83;;;;;;;;;;5077352;28;20637;-64
2023/10/06 11:42:11;;;;;;;2.03;1.77;;;;;;;;;;5078514;28;20208;-64
2023/10/06 11:44:40;;;;;;;2.38;1.80;;;;;;;;;;5077023;28;20300;-64
2023/10/06 11:47:07;;;;;;;2.50;1.77;;;;;;;;;;5076413;28;20596;-64
2023/10/06 11:49:35;;;;;;;2.42;2.10;;;;;;;;;;5077631;28;20215;-64
2023/10/06 11:52:05;;;;;;;2.30;1.77;;;;;;;;;;5078051;28;20215;-64
2023/10/06 11:54:33;;;;;;;1.98;1.80;;;;;;;;;;5078199;28;20298;-64
2023/10/06 11:57:00;;;;;;;2.50;1.85;;;;;;;;;;5078167;28;20569;-64
2023/10/06 11:59:29;;;;;;;2.20;1.70;;;;;;;;;;5078439;28;20204;-64
2023/10/06 12:02:09;;;;;;;2.25;1.70;;;;;;;;;;5077679;28;20212;-64
2023/10/06 12:04:37;;;;;;;2.65;1.73;;;;;;;;;;5077518;28;20200;-64
2023/10/06 12:07:05;;;;;;;2.28;1.60;;;;;;;;;;5077758;28;20208;-64
2023/10/06 12:09:33;;;;;;;2.35;1.65;;;;;;;;;;5077575;28;20207;-64
2023/10/06 12:12:01;;;;;;;2.58;1.83;;;;;;;;;;5077843;28;20204;-64
2023/10/06 12:14:30;;;;;;;3.15;1.90;;;;;;;;;;5078223;28;20254;-64
2023/10/06 12:16:59;;;;;;;2.25;1.67;;;;;;;;;;5076715;28;20205;-64
2023/10/06 12:19:26;;;;;;;2.35;1.83;;;;;;;;;;5077501;28;20615;-64
2023/10/06 12:21:53;;;;;;;2.00;1.70;;;;;;;;;;5077830;28;20559;-64
2023/10/06 12:24:22;;;;;;;2.42;1.75;;;;;;;;;;5077645;28;20201;-64
2023/10/06 12:26:49;;;;;;;1.88;1.67;;;;;;;;;;5078269;28;20200;-64
2023/10/06 12:29:17;;;;;;;2.22;1.75;;;;;;;;;;5077624;28;20222;-64
2023/10/06 12:31:46;;;;;;;2.53;1.80;;;;;;;;;;5077001;28;20244;-64
2023/10/06 12:34:15;;;;;;;2.42;1.90;;;;;;;;;;5076604;28;20731;-64
2023/10/06 12:36:47;;;;;;;3.75;2.00;;;;;;;;;;5077005;28;20664;-64
2023/10/06 12:39:16;;;;;;;2.80;1.60;;;;;;;;;;5077485;28;20204;-64
2023/10/06 12:41:46;;;;;;;3.25;1.80;;;;;;;;;;5077416;28;20290;-64
2023/10/06 12:44:14;;;;;;;2.63;1.67;;;;;;;;;;5076670;28;20214;-64
2023/10/06 12:46:41;;;;;;;3.63;1.90;;;;;;;;;;5076868;28;20505;-64
2023/10/06 12:49:09;;;;;;;2.38;2.00;;;;;;;;;;5075936;28;20623;-64
2023/10/06 12:51:39;;;;;;;2.38;1.80;;;;;;;;;;5076938;28;20295;-64
2023/10/06 12:54:09;;;;;;;2.42;1.88;;;;;;;;;;5076377;28;20212;-64
2023/10/06 12:56:37;;;;;;;2.97;2.08;;;;;;;;;;5076458;28;20281;-64
2023/10/06 12:59:05;;;;;;;3.00;2.00;;;;;;;;;;5075300;28;20223;-64
2023/10/06 13:01:33;;;;;;;2.05;1.65;;;;;;;;;;5076358;28;20212;-64
2023/10/06 13:04:01;;;;;;;3.45;1.75;;;;;;;;;;5075928;28;20212;-64
2023/10/06 13:06:31;;;;;;;2.83;2.20;;;;;;;;;;5076963;28;20207;-64
2023/10/06 13:09:03;;;;;;;3.13;1.83;;;;;;;;;;5077264;28;20212;-64
2023/10/06 13:11:32;;;;;;;2.53;2.03;;;;;;;;;;5076024;28;20257;-64
2023/10/06 13:14:03;;;;;;;2.25;2.03;;;;;;;;;;5076037;28;20270;-64
2023/10/06 13:16:32;;;;;;;2.22;2.00;;;;;;;;;;5076426;28;20236;-64
2023/10/06 13:19:01;;;;;;;3.05;2.03;;;;;;;;;;5075848;28;20269;-64
2023/10/06 13:21:30;;;;;;;2.13;1.90;;;;;;;;;;5076497;28;20214;-64
2023/10/06 13:23:59;;;;;;;2.60;2.08;;;;;;;;;;5075577;28;20282;-64
2023/10/06 13:26:30;;;;;;;2.92;2.00;;;;;;;;;;5074737;28;20200;-64
2023/10/06 13:28:59;;;;;;;3.42;2.20;;;;;;;;;;5076222;28;20204;-64
2023/10/06 13:31:27;;;;;;;2.47;1.67;;;;;;;;;;5075648;28;20779;-64
2023/10/06 13:33:56;;;;;;;2.15;1.85;;;;;;;;;;5074998;28;20226;-64
2023/10/06 13:36:25;;;;;;;2.40;1.70;;;;;;;;;;5075054;28;20315;-64
2023/10/06 13:38:53;;;;;;;2.85;1.98;;;;;;;;;;5075386;28;20219;-64
2023/10/06 13:41:20;;;;;;;2.58;2.00;;;;;;;;;;5075109;28;20204;-64
2023/10/06 13:43:49;;;;;;;2.10;1.90;;;;;;;;;;5075914;28;20227;-64
2023/10/06 13:46:17;;;;;;;2.88;1.98;;;;;;;;;;5075688;28;20192;-64
2023/10/06 13:48:44;;;;;;;2.95;2.00;;;;;;;;;;5075299;28;20204;-64
2023/10/06 13:51:11;;;;;;;3.00;2.00;;;;;;;;;;5075374;28;20204;-64
2023/10/06 13:53:41;;;;;;;2.00;1.80;;;;;;;;;;5075170;28;20905;-64
2023/10/06 13:56:08;;;;;;;2.78;2.05;;;;;;;;;;5074703;28;20228;-64
2023/10/06 13:58:36;;;;;;;3.80;2.00;;;;;;;;;;5074905;28;20211;-64
2023/10/06 14:01:04;;;;;;;2.35;1.73;;;;;;;;;;5075458;28;20204;-64
2023/10/06 14:03:32;;;;;;;3.00;1.83;;;;;;;;;;5075098;28;20204;-64
2023/10/06 14:06:00;;;;;;;2.60;2.20;;;;;;;;;;5075628;28;20196;-64
2023/10/06 14:08:28;;;;;;;2.65;1.90;;;;;;;;;;5074871;28;20640;-64
2023/10/06 14:10:57;;;;;;;2.47;1.90;;;;;;;;;;5074614;28;20204;-64
2023/10/06 14:13:26;;;;;;;2.78;1.92;;;;;;;;;;5074963;28;20208;-64
2023/10/06 14:16:01;;;;;;;1.67;1.52;;;;;;;;;;5074632;28;20294;-64
2023/10/06 14:18:32;;;;;;;1.70;1.48;;;;;;;;;;5074468;28;20291;-64
2023/10/06 14:21:05;;;;;;;2.10;1.70;;;;;;;;;;5075025;28;20204;-64
2023/10/06 14:23:35;;;;;;;1.63;1.52;;;;;;;;;;5074487;28;20310;-64
2023/10/06 14:26:09;;;;;;;2.50;2.08;;;;;;;;;;5074599;28;20193;-64
2023/10/06 14:28:36;;;;;;;2.70;2.00;;;;;;;;;;5074963;28;20557;-64
2023/10/06 14:31:09;;;;;;;2.03;1.80;;;;;;;;;;5073763;28;20236;-64
2023/10/06 14:33:44;;;;;;;2.22;1.73;;;;;;;;;;5074258;28;20633;-64
2023/10/06 14:36:24;;;;;;;2.10;1.50;;;;;;;;;;5074359;28;20230;-64
2023/10/06 14:47:09;;;;;;;2.10;1.58;;;;;;;;;;5074540;28;20199;-64
2023/10/06 14:49:42;;;;;;;2.25;1.80;;;;;;;;;;5074187;28;20577;-64
2023/10/06 14:52:09;;;;;;;1.85;1.55;;;;;;;;;;5074972;28;20456;-64
2023/10/06 14:54:38;;;;;;;1.70;1.60;;;;;;;;;;5075503;28;20214;-64
2023/10/06 14:57:06;;;;;;;2.00;1.80;;;;;;;;;;5074389;28;20281;-64
2023/10/06 14:59:34;;;;;;;2.65;1.90;;;;;;;;;;5075120;28;20272;-64
2023/10/06 15:02:06;;;;;;;1.85;1.70;;;;;;;;;;5073394;28;20215;-64
2023/10/06 15:04:35;;;;;;;2.60;1.65;;;;;;;;;;5075268;28;20270;-64
2023/10/06 15:07:04;;;;;;;1.73;1.60;;;;;;;;;;5074585;28;20320;-64
2023/10/06 15:09:32;;;;;;;4.18;1.70;;;;;;;;;;5073671;28;20212;-64
2023/10/06 15:11:59;;;;;;;2.50;1.80;;;;;;;;;;5074371;28;20580;-64